createdAt,value
2023-03-06T00:01:11.312Z,21.00
2023-03-06T00:03:41.164Z,20.10
2023-03-06T00:06:09.721Z,20.10
2023-03-06T00:08:38.254Z,19.80
2023-03-06T00:11:07.811Z,23.60
2023-03-06T00:13:36.230Z,18.20
2023-03-06T00:16:05.494Z,17.63
2023-03-06T00:18:34.227Z,19.83
2023-03-06T00:21:08.271Z,20.37
2023-03-06T00:23:37.001Z,20.17
2023-03-06T00:26:08.442Z,19.43
2023-03-06T00:28:36.996Z,19.27
2023-03-06T00:31:05.960Z,21.33
2023-03-06T00:33:34.443Z,18.83
2023-03-06T00:36:05.623Z,21.53
2023-03-06T00:38:35.601Z,18.23
2023-03-06T00:41:09.162Z,17.90
2023-03-06T00:43:37.922Z,19.23
2023-03-06T00:46:06.770Z,19.77
2023-03-06T00:48:35.388Z,18.37
2023-03-06T00:51:05.496Z,19.60
2023-03-06T00:53:34.000Z,19.97
2023-03-06T00:56:02.430Z,18.67
2023-03-06T00:58:30.910Z,20.10
2023-03-06T01:00:59.378Z,20.87
2023-03-06T01:03:27.929Z,21.23
2023-03-06T01:05:56.432Z,19.97
2023-03-06T01:08:26.337Z,17.27
2023-03-06T01:10:54.782Z,18.87
2023-03-06T01:13:23.337Z,17.23
2023-03-06T01:15:51.751Z,18.60
2023-03-06T01:18:20.193Z,18.97
2023-03-06T01:20:48.668Z,18.57
2023-03-06T01:23:17.141Z,20.60
2023-03-06T01:25:46.977Z,19.50
2023-03-06T01:28:15.411Z,19.70
2023-03-06T01:30:43.853Z,18.80
2023-03-06T01:33:12.277Z,20.77
2023-03-06T01:35:40.754Z,23.67
2023-03-06T01:38:09.234Z,23.83
2023-03-06T01:40:39.665Z,25.83
2023-03-06T01:43:13.673Z,23.93
2023-03-06T01:46:18.088Z,20.70
2023-03-06T01:48:48.247Z,20.73
2023-03-06T01:51:17.392Z,19.23
2023-03-06T01:53:46.218Z,20.17
2023-03-06T01:56:14.968Z,19.57
2023-03-06T01:58:44.791Z,22.90
2023-03-06T02:01:14.558Z,20.67
2023-03-06T02:03:44.088Z,22.03
2023-03-06T02:06:12.646Z,22.03
2023-03-06T02:08:41.104Z,21.73
2023-03-06T02:11:14.272Z,22.43
2023-03-06T02:13:44.997Z,21.83
2023-03-06T02:16:14.128Z,22.30
2023-03-06T02:18:43.945Z,20.73
2023-03-06T02:21:20.225Z,23.13
2023-03-06T02:23:56.431Z,22.63
2023-03-06T02:26:28.088Z,22.07
2023-03-06T02:28:58.519Z,19.47
2023-03-06T02:31:28.680Z,19.30
2023-03-06T02:34:05.702Z,22.10
2023-03-06T02:36:36.849Z,22.30
2023-03-06T02:39:05.596Z,20.93
2023-03-06T02:41:35.619Z,20.90
2023-03-06T02:44:04.037Z,23.10
2023-03-06T02:46:32.560Z,23.53
2023-03-06T02:49:01.155Z,25.73
2023-03-06T02:51:29.668Z,23.27
2023-03-06T02:53:58.163Z,21.57
2023-03-06T02:56:26.625Z,23.77
2023-03-06T02:58:56.411Z,21.90
2023-03-06T03:01:24.934Z,23.17
2023-03-06T03:03:53.434Z,23.77
2023-03-06T03:06:21.831Z,22.80
2023-03-06T03:08:50.501Z,23.90
2023-03-06T03:11:18.917Z,22.23
2023-03-06T03:13:47.381Z,24.50
2023-03-06T03:16:17.232Z,30.57
2023-03-06T03:18:47.963Z,57.30
2023-03-06T03:21:17.105Z,35.37
2023-03-06T03:23:45.551Z,22.67
2023-03-06T03:26:15.510Z,23.77
2023-03-06T03:28:44.019Z,21.87
2023-03-06T03:31:13.262Z,20.80
2023-03-06T03:33:43.311Z,25.80
2023-03-06T03:36:11.941Z,19.57
2023-03-06T03:38:40.374Z,21.77
2023-03-06T03:41:08.798Z,21.20
2023-03-06T03:43:37.166Z,19.27
2023-03-06T03:46:06.116Z,20.90
2023-03-06T03:48:34.622Z,20.87
2023-03-06T03:51:09.416Z,20.43
2023-03-06T03:53:38.223Z,21.20
2023-03-06T03:56:07.094Z,22.43
2023-03-06T03:58:35.520Z,20.13
2023-03-06T04:01:04.057Z,23.90
2023-03-06T04:03:32.745Z,23.57
2023-03-06T04:06:01.519Z,21.77
2023-03-06T04:08:31.424Z,21.90
2023-03-06T04:11:00.027Z,23.73
2023-03-06T04:13:28.640Z,21.77
2023-03-06T04:15:57.331Z,23.00
2023-03-06T04:18:25.825Z,21.70
2023-03-06T04:20:54.476Z,20.60
2023-03-06T04:23:24.278Z,21.77
2023-03-06T04:25:54.088Z,21.93
2023-03-06T04:28:22.518Z,22.63
2023-03-06T04:30:51.016Z,20.47
2023-03-06T04:33:19.554Z,18.30
2023-03-06T04:35:48.176Z,20.57
2023-03-06T04:38:16.674Z,20.23
2023-03-06T04:40:45.320Z,18.63
2023-03-06T04:43:15.393Z,20.53
2023-03-06T04:45:43.911Z,19.30
2023-03-06T04:48:14.854Z,19.47
2023-03-06T04:50:43.720Z,20.27
2023-03-06T04:53:12.164Z,20.60
2023-03-06T04:55:40.795Z,21.00
2023-03-06T04:58:09.476Z,19.63
2023-03-06T05:00:39.424Z,21.90
2023-03-06T05:03:07.876Z,22.57
2023-03-06T05:05:36.385Z,20.80
2023-03-06T05:08:05.173Z,21.20
2023-03-06T05:10:33.626Z,25.70
2023-03-06T05:13:02.117Z,22.33
2023-03-06T05:15:30.521Z,19.03
2023-03-06T05:18:00.548Z,19.60
2023-03-06T05:20:29.275Z,21.40
2023-03-06T05:22:57.815Z,20.93
2023-03-06T05:25:26.248Z,22.20
2023-03-06T05:27:54.679Z,20.30
2023-03-06T05:30:23.700Z,18.77
2023-03-06T05:32:52.325Z,16.80
2023-03-06T05:35:23.795Z,17.87
2023-03-06T05:37:52.436Z,16.37
2023-03-06T05:40:21.345Z,20.03
2023-03-06T05:42:49.748Z,19.03
2023-03-06T05:45:18.293Z,15.73
2023-03-06T05:47:46.830Z,15.20
2023-03-06T05:50:15.415Z,14.73
2023-03-06T05:52:45.365Z,16.93
2023-03-06T05:55:14.023Z,15.40
2023-03-06T05:57:42.578Z,16.93
2023-03-06T06:00:12.262Z,19.10
2023-03-06T06:02:41.106Z,19.67
2023-03-06T06:05:12.875Z,21.93
2023-03-06T06:07:42.023Z,18.80
2023-03-06T06:10:13.054Z,16.57
2023-03-06T06:12:41.524Z,18.33
2023-03-06T06:15:10.535Z,18.57
2023-03-06T06:17:39.030Z,15.20
2023-03-06T06:20:08.823Z,16.07
2023-03-06T06:22:38.579Z,17.10
2023-03-06T06:25:08.332Z,15.20
2023-03-06T06:27:38.223Z,15.60
2023-03-06T06:30:08.124Z,13.73
2023-03-06T06:32:37.592Z,13.33
2023-03-06T06:35:06.777Z,13.03
2023-03-06T06:37:35.168Z,13.93
2023-03-06T06:40:04.534Z,14.53
2023-03-06T06:42:38.887Z,14.87
2023-03-06T06:45:11.066Z,13.07
2023-03-06T06:47:41.530Z,12.87
2023-03-06T06:50:13.071Z,12.03
2023-03-06T06:52:41.895Z,12.20
2023-03-06T06:55:11.591Z,12.37
2023-03-06T06:57:41.028Z,11.67
2023-03-06T07:00:14.404Z,12.70
2023-03-06T07:02:42.836Z,15.13
2023-03-06T07:05:11.862Z,16.50
2023-03-06T07:07:40.353Z,13.70
2023-03-06T07:10:13.960Z,12.03
2023-03-06T07:12:42.574Z,12.13
2023-03-06T07:15:14.042Z,13.80
2023-03-06T07:17:42.650Z,12.77
2023-03-06T07:20:12.724Z,15.43
2023-03-06T07:22:50.903Z,13.20
2023-03-06T07:25:20.697Z,14.37
2023-03-06T07:27:53.631Z,14.33
2023-03-06T07:30:24.697Z,13.03
2023-03-06T07:32:57.366Z,12.47
2023-03-06T07:35:26.470Z,14.37
2023-03-06T07:37:55.096Z,15.47
2023-03-06T07:40:25.291Z,12.33
2023-03-06T07:42:56.477Z,12.57
2023-03-06T07:45:29.898Z,13.13
2023-03-06T07:47:58.321Z,12.33
2023-03-06T07:50:27.038Z,13.87
2023-03-06T07:52:55.509Z,12.47
2023-03-06T07:55:23.939Z,11.73
2023-03-06T07:57:52.645Z,14.50
2023-03-06T08:00:21.961Z,16.27
2023-03-06T08:02:51.884Z,13.80
2023-03-06T08:05:21.092Z,12.20
2023-03-06T08:07:49.611Z,11.37
2023-03-06T08:10:18.604Z,12.20
2023-03-06T08:12:47.070Z,11.57
2023-03-06T08:15:15.684Z,10.50
2023-03-06T08:17:44.113Z,12.97
2023-03-06T08:20:15.409Z,9.90
2023-03-06T08:22:43.824Z,11.60
2023-03-06T08:25:13.341Z,12.57
2023-03-06T08:27:41.959Z,12.73
2023-03-06T08:30:11.685Z,10.77
2023-03-06T08:32:40.152Z,12.60
2023-03-06T08:35:09.283Z,11.03
2023-03-06T08:37:39.117Z,11.30
2023-03-06T08:40:08.944Z,13.83
2023-03-06T08:42:40.071Z,12.10
2023-03-06T08:45:09.913Z,11.50
2023-03-06T08:47:38.428Z,12.10
2023-03-06T08:50:07.467Z,10.83
2023-03-06T08:52:35.921Z,11.17
2023-03-06T08:55:06.483Z,12.17
2023-03-06T08:57:34.942Z,12.77
2023-03-06T09:00:05.935Z,13.57
2023-03-06T09:02:34.517Z,12.23
2023-03-06T09:05:05.099Z,13.27
2023-03-06T09:07:33.632Z,12.73
2023-03-06T09:10:02.268Z,12.00
2023-03-06T09:12:37.386Z,13.53
2023-03-06T09:15:16.858Z,13.27
2023-03-06T09:17:45.666Z,12.27
2023-03-06T09:20:15.061Z,12.93
2023-03-06T09:22:43.658Z,13.50
2023-03-06T09:25:13.254Z,12.07
2023-03-06T09:27:43.248Z,13.23
2023-03-06T09:30:13.286Z,13.33
2023-03-06T09:32:41.905Z,15.57
2023-03-06T09:35:11.658Z,15.43
2023-03-06T09:37:40.189Z,23.37
2023-03-06T09:40:12.782Z,24.87
2023-03-06T09:42:42.842Z,27.10
2023-03-06T09:45:13.380Z,21.27
2023-03-06T09:47:54.327Z,15.87
2023-03-06T09:50:30.859Z,14.73
2023-03-06T09:53:06.657Z,13.53
2023-03-06T09:55:38.077Z,14.23
2023-03-06T09:58:14.739Z,13.57
2023-03-06T10:00:46.649Z,14.57
2023-03-06T10:03:23.140Z,14.70
2023-03-06T10:05:56.165Z,12.23
2023-03-06T10:08:31.570Z,14.70
2023-03-06T10:11:02.289Z,14.20
2023-03-06T10:13:38.465Z,14.83
2023-03-06T10:16:24.247Z,14.57
2023-03-06T10:18:52.843Z,14.43
2023-03-06T10:21:31.405Z,16.20
2023-03-06T10:24:05.572Z,15.47
2023-03-06T10:26:39.081Z,13.77
2023-03-06T10:29:32.562Z,14.40
2023-03-06T10:32:09.083Z,14.77
2023-03-06T10:34:40.080Z,16.43
2023-03-06T10:37:18.660Z,14.77
2023-03-06T10:39:47.189Z,15.97
2023-03-06T10:42:15.622Z,13.77
2023-03-06T10:44:45.508Z,13.27
2023-03-06T10:47:35.014Z,15.20
2023-03-06T10:50:08.429Z,16.30
2023-03-06T10:52:37.217Z,15.07
2023-03-06T10:55:25.914Z,15.40
2023-03-06T10:57:54.478Z,15.23
2023-03-06T11:00:33.184Z,14.50
2023-03-06T11:03:18.413Z,15.70
2023-03-06T11:06:04.078Z,15.90
2023-03-06T11:08:32.569Z,14.47
2023-03-06T11:11:03.920Z,15.27
2023-03-06T11:13:34.273Z,17.03
2023-03-06T11:16:06.914Z,16.50
2023-03-06T11:18:41.071Z,17.60
2023-03-06T11:21:31.700Z,14.37
2023-03-06T11:24:05.306Z,19.90
2023-03-06T11:26:40.390Z,19.53
2023-03-06T11:29:33.124Z,14.53
2023-03-06T11:32:11.094Z,17.20
2023-03-06T11:34:43.561Z,17.53
2023-03-06T11:37:17.658Z,15.97
2023-03-06T11:39:49.467Z,20.23
2023-03-06T11:42:21.762Z,17.20
2023-03-06T11:44:59.340Z,15.93
2023-03-06T11:47:34.045Z,15.90
2023-03-06T11:50:13.793Z,16.40
2023-03-06T11:52:46.805Z,19.33
2023-03-06T11:55:18.870Z,16.37
2023-03-06T11:57:52.525Z,16.40
2023-03-06T12:00:37.561Z,15.40
2023-03-06T12:03:35.120Z,15.83
2023-03-06T12:06:05.593Z,16.97
2023-03-06T12:08:44.737Z,16.33
2023-03-06T12:11:18.836Z,14.73
2023-03-06T12:14:05.234Z,16.20
2023-03-06T12:16:58.620Z,16.33
2023-03-06T12:19:37.636Z,16.63
2023-03-06T12:22:36.032Z,16.20
2023-03-06T12:25:33.357Z,17.63
2023-03-06T12:28:14.223Z,14.77
2023-03-06T12:31:09.452Z,16.87
2023-03-06T12:33:44.522Z,20.37
2023-03-06T12:36:36.334Z,15.97
2023-03-06T12:39:10.729Z,15.40
2023-03-06T12:41:53.889Z,17.17
2023-03-06T12:44:55.965Z,15.57
2023-03-06T12:47:27.836Z,15.73
2023-03-06T12:49:58.304Z,16.20
2023-03-06T12:52:31.347Z,17.53
2023-03-06T12:55:01.031Z,21.13
2023-03-06T12:57:29.561Z,14.83
2023-03-06T12:59:58.065Z,17.90
2023-03-06T13:02:51.456Z,15.97
2023-03-06T13:05:59.118Z,15.43
2023-03-06T13:08:50.947Z,16.43
2023-03-06T13:11:29.732Z,16.33
2023-03-06T13:13:58.503Z,16.00
2023-03-06T13:16:30.435Z,16.03
2023-03-06T13:19:12.069Z,18.77
2023-03-06T13:22:20.752Z,17.83
2023-03-06T13:25:29.098Z,15.67
2023-03-06T13:28:04.901Z,16.63
2023-03-06T13:30:46.851Z,17.00
2023-03-06T13:33:51.964Z,15.77
2023-03-06T13:36:39.851Z,15.07
2023-03-06T13:39:09.736Z,13.93
2023-03-06T13:41:58.289Z,17.63
2023-03-06T13:44:48.827Z,16.20
2023-03-06T13:48:22.648Z,17.03
2023-03-06T13:50:37.619Z,17.83
2023-03-06T13:53:24.562Z,15.93
2023-03-06T13:56:04.957Z,16.63
2023-03-06T13:58:46.152Z,15.43
2023-03-06T14:01:34.695Z,17.17
2023-03-06T14:04:21.931Z,16.17
2023-03-06T14:07:05.560Z,16.37
2023-03-06T14:09:38.701Z,16.57
2023-03-06T14:12:14.756Z,17.17
2023-03-06T14:14:47.285Z,17.37
2023-03-06T14:17:22.915Z,18.80
2023-03-06T14:19:51.657Z,16.03
2023-03-06T14:22:23.652Z,19.33
2023-03-06T14:25:01.099Z,16.03
2023-03-06T14:27:40.356Z,16.07
2023-03-06T14:30:15.196Z,16.87
2023-03-06T14:32:44.013Z,16.47
2023-03-06T14:35:24.269Z,15.17
2023-03-06T14:37:55.554Z,15.93
2023-03-06T14:40:29.827Z,18.30
2023-03-06T14:43:20.084Z,14.67
2023-03-06T14:45:58.385Z,17.73
2023-03-06T14:48:28.662Z,17.30
2023-03-06T14:50:57.918Z,17.30
2023-03-06T14:53:29.700Z,18.23
2023-03-06T14:56:00.455Z,14.90
2023-03-06T14:58:32.302Z,16.23
2023-03-06T15:01:04.465Z,19.97
2023-03-06T15:03:40.328Z,16.30
2023-03-06T15:06:09.905Z,19.17
2023-03-06T15:08:39.501Z,25.17
2023-03-06T15:11:08.606Z,20.23
2023-03-06T15:13:37.094Z,18.70
2023-03-06T15:16:09.371Z,16.27
2023-03-06T15:18:39.366Z,19.10
2023-03-06T15:21:16.188Z,16.87
2023-03-06T15:23:46.172Z,15.80
2023-03-06T15:26:29.273Z,17.77
2023-03-06T15:29:08.918Z,17.73
2023-03-06T15:31:41.392Z,17.50
2023-03-06T15:34:18.485Z,16.30
2023-03-06T15:36:48.202Z,19.73
2023-03-06T15:39:34.972Z,17.67
2023-03-06T15:42:09.016Z,17.57
2023-03-06T15:44:37.582Z,20.10
2023-03-06T15:47:09.587Z,18.37
2023-03-06T15:49:38.927Z,22.07
2023-03-06T15:52:07.810Z,20.07
2023-03-06T15:54:36.992Z,16.80
2023-03-06T15:57:07.504Z,17.80
2023-03-06T15:59:40.483Z,31.77
2023-03-06T16:02:16.844Z,19.30
2023-03-06T16:04:46.122Z,18.57
2023-03-06T16:07:14.943Z,18.33
2023-03-06T16:09:44.016Z,19.03
2023-03-06T16:12:17.331Z,15.83
2023-03-06T16:14:47.306Z,14.80
2023-03-06T16:17:17.234Z,17.97
2023-03-06T16:19:45.660Z,14.73
2023-03-06T16:22:14.750Z,19.37
2023-03-06T16:24:43.545Z,20.90
2023-03-06T16:27:17.724Z,26.03
2023-03-06T16:29:47.305Z,17.33
2023-03-06T16:32:17.536Z,16.70
2023-03-06T16:34:46.097Z,18.90
2023-03-06T16:37:15.081Z,28.73
2023-03-06T16:39:43.524Z,33.37
2023-03-06T16:42:12.030Z,19.57
2023-03-06T16:44:41.279Z,18.17
2023-03-06T16:47:12.317Z,16.43
2023-03-06T16:49:42.154Z,20.37
2023-03-06T16:52:11.827Z,21.50
2023-03-06T16:54:40.366Z,17.67
2023-03-06T16:57:09.832Z,20.50
2023-03-06T16:59:38.321Z,18.77
2023-03-06T17:02:07.309Z,17.37
2023-03-06T17:04:35.867Z,15.23
2023-03-06T17:07:06.071Z,14.93
2023-03-06T17:09:34.621Z,19.80
2023-03-06T17:12:03.223Z,19.73
2023-03-06T17:14:34.309Z,20.07
2023-03-06T17:17:02.868Z,20.40
2023-03-06T17:19:31.456Z,20.03
2023-03-06T17:22:00.092Z,22.07
2023-03-06T17:24:30.023Z,21.63
2023-03-06T17:26:58.456Z,23.17
2023-03-06T17:29:26.958Z,21.57
2023-03-06T17:31:56.002Z,22.27
2023-03-06T17:34:24.737Z,20.10
2023-03-06T17:36:53.246Z,22.90
2023-03-06T17:39:21.767Z,21.83
2023-03-06T17:41:51.661Z,24.53
2023-03-06T17:44:20.164Z,21.80
2023-03-06T17:46:49.919Z,23.67
2023-03-06T17:49:19.488Z,22.37
2023-03-06T17:51:47.969Z,23.87
2023-03-06T17:54:16.404Z,24.43
2023-03-06T17:56:45.206Z,25.13
2023-03-06T17:59:15.304Z,24.53
2023-03-06T18:01:45.079Z,25.47
2023-03-06T18:04:13.782Z,24.73
2023-03-06T18:06:42.471Z,22.87
2023-03-06T18:09:10.887Z,23.43
2023-03-06T18:11:39.428Z,24.23
2023-03-06T18:14:08.097Z,23.07
2023-03-06T18:16:38.176Z,23.10
2023-03-06T18:19:06.701Z,24.30
2023-03-06T18:21:35.130Z,25.27
2023-03-06T18:24:03.666Z,21.17
2023-03-06T18:26:32.315Z,20.73
2023-03-06T18:29:03.744Z,22.33
2023-03-06T18:31:34.601Z,23.73
2023-03-06T18:34:07.541Z,22.67
2023-03-06T18:36:37.044Z,21.87
2023-03-06T18:39:09.048Z,22.27
2023-03-06T18:41:37.627Z,23.97
2023-03-06T18:44:07.000Z,24.40
2023-03-06T18:46:37.368Z,22.37
2023-03-06T18:49:07.666Z,22.73
2023-03-06T18:51:36.436Z,23.90
2023-03-06T18:54:05.821Z,28.00
2023-03-06T18:56:34.357Z,31.33
2023-03-06T18:59:03.546Z,27.73
2023-03-06T19:01:32.188Z,24.17
2023-03-06T19:04:02.128Z,25.40
2023-03-06T19:06:32.686Z,24.73
2023-03-06T19:09:02.211Z,25.30
2023-03-06T19:11:30.686Z,26.60
2023-03-06T19:13:59.548Z,26.23
2023-03-06T19:16:29.539Z,23.77
2023-03-06T19:18:58.666Z,25.80
2023-03-06T19:21:28.041Z,26.23
2023-03-06T19:23:58.078Z,25.17
2023-03-06T19:26:28.004Z,23.77
2023-03-06T19:28:56.450Z,23.63
2023-03-06T19:31:26.821Z,27.73
2023-03-06T19:33:57.010Z,26.03
2023-03-06T19:36:27.771Z,24.57
2023-03-06T19:38:58.444Z,23.47
2023-03-06T19:41:27.416Z,22.77
2023-03-06T19:43:58.452Z,25.27
2023-03-06T19:46:28.035Z,24.63
2023-03-06T19:48:57.807Z,21.57
2023-03-06T19:51:26.807Z,21.87
2023-03-06T19:53:55.627Z,25.07
2023-03-06T19:56:27.307Z,22.60
2023-03-06T19:58:56.385Z,23.57
2023-03-06T20:01:27.617Z,25.43
2023-03-06T20:03:59.238Z,21.93
2023-03-06T20:06:31.171Z,24.17
2023-03-06T20:09:00.027Z,23.57
2023-03-06T20:11:31.163Z,23.37
2023-03-06T20:14:01.155Z,20.47
2023-03-06T20:16:30.734Z,21.33
2023-03-06T20:19:00.553Z,23.77
2023-03-06T20:21:31.242Z,22.67
2023-03-06T20:24:01.018Z,23.17
2023-03-06T20:26:33.744Z,25.47
2023-03-06T20:29:02.554Z,24.67
2023-03-06T20:31:32.049Z,24.53
2023-03-06T20:34:01.635Z,24.17
2023-03-06T20:36:31.974Z,22.17
2023-03-06T20:39:02.258Z,21.57
2023-03-06T20:41:33.065Z,22.57
2023-03-06T20:44:02.992Z,21.27
2023-03-06T20:46:31.761Z,21.33
2023-03-06T20:49:00.517Z,19.63
2023-03-06T20:51:31.569Z,20.03
2023-03-06T20:54:01.792Z,19.50
2023-03-06T20:56:33.593Z,20.57
2023-03-06T20:59:02.463Z,22.93
2023-03-06T21:01:32.204Z,21.53
2023-03-06T21:04:01.756Z,23.27
2023-03-06T21:06:30.829Z,22.20
2023-03-06T21:09:01.135Z,21.27
2023-03-06T21:11:31.388Z,23.23
2023-03-06T21:14:00.822Z,25.53
2023-03-06T21:16:30.198Z,23.17
2023-03-06T21:19:00.061Z,22.93
2023-03-06T21:21:31.075Z,24.30
2023-03-06T21:23:59.620Z,22.10
2023-03-06T21:26:29.751Z,21.13
2023-03-06T21:29:00.019Z,22.53
2023-03-06T21:31:28.766Z,19.47
2023-03-06T21:33:58.679Z,21.73
2023-03-06T21:36:28.194Z,23.47
2023-03-06T21:38:56.854Z,22.87
2023-03-06T21:41:27.063Z,21.53
2023-03-06T21:43:56.872Z,24.20
2023-03-06T21:46:27.680Z,22.63
2023-03-06T21:48:56.991Z,21.40
2023-03-06T21:51:26.283Z,21.17
2023-03-06T21:53:55.659Z,18.37
2023-03-06T21:56:27.917Z,22.40
2023-03-06T21:58:56.404Z,22.07
2023-03-06T22:01:28.413Z,19.13
2023-03-06T22:03:58.407Z,22.57
2023-03-06T22:06:30.400Z,21.37
2023-03-06T22:08:59.940Z,20.73
2023-03-06T22:11:31.256Z,19.93
2023-03-06T22:14:00.154Z,20.03
2023-03-06T22:16:30.069Z,23.13
2023-03-06T22:18:58.481Z,23.57
2023-03-06T22:21:27.117Z,21.13
2023-03-06T22:23:58.459Z,22.50
2023-03-06T22:26:27.933Z,20.80
2023-03-06T22:28:56.900Z,19.17
2023-03-06T22:31:27.136Z,20.87
2023-03-06T22:33:58.235Z,20.67
2023-03-06T22:36:27.331Z,19.83
2023-03-06T22:38:57.049Z,20.63
2023-03-06T22:41:26.824Z,21.23
2023-03-06T22:43:56.832Z,23.23
2023-03-06T22:46:26.308Z,21.37
2023-03-06T22:48:58.174Z,18.03
2023-03-06T22:51:27.490Z,20.07
2023-03-06T22:53:55.922Z,21.30
2023-03-06T22:56:24.377Z,18.30
2023-03-06T22:58:52.876Z,19.27
2023-03-06T23:01:23.079Z,19.67
2023-03-06T23:03:53.855Z,19.27
2023-03-06T23:06:25.340Z,20.67
2023-03-06T23:08:55.288Z,22.10
2023-03-06T23:11:28.006Z,19.70
2023-03-06T23:13:56.765Z,24.03
2023-03-06T23:16:26.200Z,21.03
2023-03-06T23:18:54.830Z,21.23
2023-03-06T23:21:25.159Z,19.43
2023-03-06T23:23:55.096Z,18.97
2023-03-06T23:26:25.001Z,19.93
2023-03-06T23:28:53.803Z,18.30
2023-03-06T23:31:24.231Z,19.93
2023-03-06T23:33:52.751Z,22.07
2023-03-06T23:36:21.133Z,21.70
2023-03-06T23:38:50.915Z,19.93
2023-03-06T23:41:20.925Z,20.07
2023-03-06T23:43:50.164Z,19.97
2023-03-06T23:46:18.904Z,19.67
2023-03-06T23:48:47.368Z,20.70
2023-03-06T23:51:17.823Z,23.63
2023-03-06T23:53:47.737Z,29.80
2023-03-06T23:56:17.603Z,110.80
2023-03-06T23:58:46.497Z,42.63
